createdAt,value
2022-09-20T00:00:05.161Z,86.48
2022-09-20T00:02:57.285Z,86.60
2022-09-20T00:05:29.450Z,86.61
2022-09-20T00:08:01.625Z,86.57
2022-09-20T00:10:38.068Z,86.55
2022-09-20T00:13:12.629Z,86.48
2022-09-20T00:15:46.718Z,86.59
2022-09-20T00:18:18.785Z,86.59
2022-09-20T00:20:51.681Z,86.61
2022-09-20T00:23:24.064Z,86.50
2022-09-20T00:26:00.901Z,86.37
2022-09-20T00:28:34.843Z,86.24
2022-09-20T00:31:08.057Z,86.25
2022-09-20T00:33:58.076Z,86.19
2022-09-20T00:36:31.193Z,86.04
2022-09-20T00:39:04.667Z,86.21
2022-09-20T00:41:36.775Z,86.27
2022-09-20T00:44:39.353Z,86.25
2022-09-20T00:47:19.322Z,86.39
2022-09-20T00:49:53.511Z,86.24
2022-09-20T00:52:26.869Z,86.20
2022-09-20T00:55:00.590Z,86.27
2022-09-20T00:57:35.570Z,86.40
2022-09-20T01:00:11.458Z,86.26
2022-09-20T01:02:47.510Z,86.32
2022-09-20T01:05:21.046Z,86.19
2022-09-20T01:07:54.780Z,86.13
2022-09-20T01:10:27.012Z,86.29
2022-09-20T01:13:00.938Z,86.41
2022-09-20T01:15:35.713Z,86.41
2022-09-20T01:18:10.676Z,86.28
2022-09-20T01:20:45.684Z,86.49
2022-09-20T01:23:36.265Z,86.43
2022-09-20T01:26:49.882Z,86.37
2022-09-20T01:29:37.138Z,86.55
2022-09-20T01:32:14.019Z,86.50
2022-09-20T01:34:46.803Z,86.64
2022-09-20T01:37:26.099Z,86.63
2022-09-20T01:40:06.601Z,86.60
2022-09-20T01:42:45.489Z,86.83
2022-09-20T01:45:28.655Z,86.86
2022-09-20T01:48:10.563Z,86.73
2022-09-20T01:51:03.824Z,86.73
2022-09-20T01:54:27.491Z,86.68
2022-09-20T01:57:26.442Z,86.54
2022-09-20T02:00:13.364Z,86.56
2022-09-20T02:03:25.288Z,86.61
2022-09-20T02:06:14.963Z,86.54
2022-09-20T02:09:13.466Z,86.49
2022-09-20T02:11:55.204Z,86.60
2022-09-20T02:14:42.501Z,86.42
2022-09-20T02:17:27.645Z,86.65
2022-09-20T02:20:14.575Z,86.53
2022-09-20T02:22:58.778Z,86.72
2022-09-20T02:25:53.055Z,86.71
2022-09-20T02:28:45.819Z,86.68
2022-09-20T02:31:24.552Z,86.91
2022-09-20T02:34:21.186Z,86.93
2022-09-20T02:37:07.934Z,87.01
2022-09-20T02:39:50.409Z,86.99
2022-09-20T02:42:27.030Z,86.97
2022-09-20T02:45:08.209Z,86.99
2022-09-20T02:47:43.700Z,87.13
2022-09-20T02:50:24.553Z,87.16
2022-09-20T02:53:12.223Z,87.22
2022-09-20T02:55:57.694Z,87.22
2022-09-20T02:58:43.687Z,87.11
2022-09-20T03:01:32.405Z,87.15
2022-09-20T03:04:21.914Z,87.14
2022-09-20T03:07:02.857Z,87.21
2022-09-20T03:09:43.087Z,87.08
2022-09-20T03:12:28.168Z,87.02
2022-09-20T03:15:12.166Z,87.07
2022-09-20T03:17:54.347Z,86.92
2022-09-20T03:20:37.202Z,86.98
2022-09-20T03:23:25.232Z,86.96
2022-09-20T03:26:05.251Z,86.93
2022-09-20T03:28:55.666Z,86.76
2022-09-20T03:31:40.037Z,86.60
2022-09-20T03:34:24.568Z,86.78
2022-09-20T03:37:10.042Z,86.75
2022-09-20T03:40:01.735Z,86.87
2022-09-20T03:42:39.283Z,86.91
2022-09-20T03:45:38.369Z,86.91
2022-09-20T03:48:37.056Z,86.82
2022-09-20T03:51:19.028Z,86.93
2022-09-20T03:54:20.378Z,87.04
2022-09-20T03:57:25.941Z,87.00
2022-09-20T04:00:10.041Z,87.06
2022-09-20T04:03:04.990Z,87.07
2022-09-20T04:05:49.144Z,86.99
2022-09-20T04:08:37.961Z,86.90
2022-09-20T04:11:25.245Z,86.89
2022-09-20T04:14:11.286Z,86.84
2022-09-20T04:16:50.809Z,86.91
2022-09-20T04:19:32.915Z,86.94
2022-09-20T04:22:07.559Z,86.87
2022-09-20T04:24:47.498Z,86.74
2022-09-20T04:27:24.241Z,86.90
2022-09-20T04:30:02.343Z,86.83
2022-09-20T04:32:41.577Z,86.78
2022-09-20T04:35:43.122Z,86.79
2022-09-20T04:38:18.976Z,86.88
2022-09-20T04:41:16.567Z,86.82
2022-09-20T04:44:16.411Z,86.82
2022-09-20T04:47:25.188Z,86.58
2022-09-20T04:50:24.360Z,86.50
2022-09-20T04:53:26.146Z,86.32
2022-09-20T04:56:02.552Z,86.49
2022-09-20T04:59:01.056Z,86.40
2022-09-20T05:02:20.487Z,86.31
2022-09-20T05:05:26.019Z,86.37
2022-09-20T05:08:26.685Z,86.41
2022-09-20T05:11:41.496Z,86.24
2022-09-20T05:14:45.191Z,86.44
2022-09-20T05:17:26.660Z,86.29
2022-09-20T05:20:24.333Z,86.35
2022-09-20T05:23:38.070Z,86.31
2022-09-20T05:26:27.880Z,86.19
2022-09-20T05:29:10.886Z,86.22
2022-09-20T05:31:47.628Z,86.27
2022-09-20T05:34:23.875Z,86.18
2022-09-20T05:37:05.819Z,86.08
2022-09-20T05:39:43.585Z,85.91
2022-09-20T05:42:21.940Z,85.87
2022-09-20T05:45:05.629Z,85.79
2022-09-20T05:47:48.254Z,85.70
2022-09-20T05:50:38.041Z,85.46
2022-09-20T05:53:51.614Z,85.28
2022-09-20T05:56:36.208Z,85.28
2022-09-20T05:59:29.889Z,85.38
2022-09-20T06:02:17.888Z,85.19
2022-09-20T06:05:01.586Z,85.23
2022-09-20T06:07:51.183Z,85.29
2022-09-20T06:10:52.523Z,85.23
2022-09-20T06:13:43.292Z,85.10
2022-09-20T06:16:22.464Z,85.08
2022-09-20T06:19:06.433Z,85.12
2022-09-20T06:21:49.589Z,85.19
2022-09-20T06:24:34.148Z,85.07
2022-09-20T06:27:12.048Z,85.13
2022-09-20T06:29:50.673Z,84.95
2022-09-20T06:32:23.005Z,84.75
2022-09-20T06:34:55.529Z,84.76
2022-09-20T06:37:59.398Z,84.81
2022-09-20T06:40:58.073Z,84.58
2022-09-20T06:43:31.751Z,84.44
2022-09-20T06:46:03.875Z,84.50
2022-09-20T06:48:40.056Z,84.59
2022-09-20T06:51:12.568Z,84.82
2022-09-20T06:53:45.052Z,84.72
2022-09-20T06:56:20.687Z,84.66
2022-09-20T06:58:53.317Z,84.69
2022-09-20T07:01:30.171Z,84.78
2022-09-20T07:04:03.272Z,84.62
2022-09-20T07:06:35.993Z,84.51
2022-09-20T07:09:08.580Z,84.51
2022-09-20T07:11:40.606Z,84.40
2022-09-20T07:14:12.841Z,84.53
2022-09-20T07:16:44.989Z,84.42
2022-09-20T07:19:17.544Z,84.22
2022-09-20T07:21:49.664Z,84.04
2022-09-20T07:24:21.752Z,84.25
2022-09-20T07:27:01.774Z,83.98
2022-09-20T07:29:35.421Z,84.01
2022-09-20T07:32:08.121Z,83.94
2022-09-20T07:34:40.865Z,84.18
2022-09-20T07:37:14.091Z,84.06
2022-09-20T07:39:46.442Z,83.79
2022-09-20T07:42:18.818Z,84.02
2022-09-20T07:44:50.919Z,83.98
2022-09-20T07:47:25.327Z,83.98
2022-09-20T07:49:57.515Z,83.99
2022-09-20T07:52:29.642Z,83.66
2022-09-20T07:55:02.829Z,83.47
2022-09-20T07:57:39.809Z,83.50
2022-09-20T08:00:11.707Z,83.59
2022-09-20T08:02:46.767Z,83.44
2022-09-20T08:05:19.102Z,83.35
2022-09-20T08:07:51.228Z,83.24
2022-09-20T08:10:25.402Z,82.79
2022-09-20T08:15:50.277Z,82.54
2022-09-20T08:18:22.431Z,82.72
2022-09-20T08:20:54.583Z,82.69
2022-09-20T08:23:26.868Z,82.45
2022-09-20T08:26:01.102Z,82.13
2022-09-20T08:28:33.874Z,82.08
2022-09-20T08:31:07.617Z,81.90
2022-09-20T08:33:40.326Z,81.91
2022-09-20T08:36:15.729Z,81.93
2022-09-20T08:41:43.737Z,81.44
2022-09-20T08:44:25.309Z,81.22
2022-09-20T08:47:07.275Z,81.61
2022-09-20T08:49:46.132Z,81.40
2022-09-20T08:52:22.497Z,80.75
2022-09-20T08:54:57.119Z,80.66
2022-09-20T08:57:33.820Z,80.62
2022-09-20T09:00:17.625Z,80.57
2022-09-20T09:02:51.827Z,80.75
2022-09-20T09:05:33.091Z,80.68
2022-09-20T09:08:16.372Z,80.94
2022-09-20T09:10:54.337Z,80.86
2022-09-20T09:13:33.150Z,81.07
2022-09-20T09:16:12.084Z,80.60
2022-09-20T09:18:47.170Z,80.87
2022-09-20T09:21:24.333Z,80.56
2022-09-20T09:24:04.412Z,80.83
2022-09-20T09:26:41.264Z,80.74
2022-09-20T09:29:19.516Z,80.57
2022-09-20T09:31:54.538Z,80.37
2022-09-20T09:34:31.709Z,80.36
2022-09-20T09:37:03.910Z,80.48
2022-09-20T09:39:38.406Z,80.55
2022-09-20T09:42:28.963Z,80.21
2022-09-20T09:45:13.816Z,80.02
2022-09-20T09:47:46.080Z,79.87
2022-09-20T09:50:27.599Z,79.94
2022-09-20T09:53:07.325Z,79.49
2022-09-20T09:55:55.674Z,79.75
2022-09-20T09:58:40.877Z,79.26
2022-09-20T10:01:33.110Z,79.45
2022-09-20T10:04:13.774Z,79.23
2022-09-20T10:06:55.071Z,79.29
2022-09-20T10:09:37.971Z,79.08
2022-09-20T10:12:23.621Z,78.67
2022-09-20T10:15:09.660Z,78.49
2022-09-20T10:17:58.449Z,78.19
2022-09-20T10:20:43.212Z,78.16
2022-09-20T10:24:01.327Z,77.90
2022-09-20T10:26:35.150Z,77.78
2022-09-20T10:29:18.299Z,77.74
2022-09-20T10:32:05.569Z,77.54
2022-09-20T10:35:08.878Z,77.07
2022-09-20T10:37:56.287Z,76.69
2022-09-20T10:40:49.089Z,76.82
2022-09-20T10:43:36.840Z,76.91
2022-09-20T10:46:37.950Z,76.43
2022-09-20T10:49:25.066Z,75.97
2022-09-20T10:52:11.396Z,75.51
2022-09-20T10:54:57.173Z,75.54
2022-09-20T10:58:04.152Z,75.23
2022-09-20T11:00:49.123Z,74.65
2022-09-20T11:03:40.689Z,74.36
2022-09-20T11:06:21.435Z,74.43
2022-09-20T11:08:59.249Z,74.73
2022-09-20T11:11:36.257Z,73.48
2022-09-20T11:14:08.087Z,73.09
2022-09-20T11:16:46.405Z,72.54
2022-09-20T11:19:26.859Z,72.33
2022-09-20T11:22:06.225Z,72.19
2022-09-20T11:24:44.485Z,72.08
2022-09-20T11:27:22.072Z,71.61
2022-09-20T11:30:01.160Z,71.56
2022-09-20T11:32:43.110Z,71.38
2022-09-20T11:35:27.247Z,71.36
2022-09-20T11:38:11.426Z,71.66
2022-09-20T11:40:48.325Z,71.67
2022-09-20T11:43:24.255Z,71.25
2022-09-20T11:46:00.976Z,71.31
2022-09-20T11:48:33.487Z,70.30
2022-09-20T11:51:22.343Z,69.70
2022-09-20T11:54:16.199Z,68.98
2022-09-20T11:56:56.575Z,68.37
2022-09-20T11:59:38.223Z,68.67
2022-09-20T12:02:23.755Z,67.71
2022-09-20T12:04:56.779Z,67.10
2022-09-20T12:07:36.032Z,67.44
2022-09-20T12:10:21.706Z,67.42
2022-09-20T12:12:59.753Z,66.99
2022-09-20T12:15:34.961Z,66.80
2022-09-20T12:18:13.807Z,66.50
2022-09-20T12:21:07.904Z,66.41
2022-09-20T12:24:03.941Z,67.03
2022-09-20T12:26:51.062Z,67.27
2022-09-20T12:30:06.826Z,67.35
2022-09-20T12:33:01.165Z,66.74
2022-09-20T12:36:16.653Z,66.78
2022-09-20T12:39:07.963Z,66.84
2022-09-20T12:41:52.214Z,66.49
2022-09-20T12:44:31.614Z,65.99
2022-09-20T12:47:08.584Z,65.53
2022-09-20T12:50:07.849Z,65.38
2022-09-20T12:52:58.617Z,63.75
2022-09-20T12:55:50.324Z,63.44
2022-09-20T12:58:29.765Z,63.18
2022-09-20T13:01:40.349Z,61.75
2022-09-20T13:04:53.233Z,60.13
2022-09-20T13:07:59.843Z,60.05
2022-09-20T13:10:39.107Z,60.11
2022-09-20T13:13:32.779Z,59.95
2022-09-20T13:16:07.655Z,59.54
2022-09-20T13:18:41.431Z,59.29
2022-09-20T13:21:13.661Z,58.80
2022-09-20T13:23:54.294Z,58.22
2022-09-20T13:26:31.183Z,57.60
2022-09-20T13:29:05.519Z,57.47
2022-09-20T13:31:37.984Z,57.29
2022-09-20T13:34:24.488Z,57.30
2022-09-20T13:36:59.559Z,57.87
2022-09-20T13:39:41.375Z,58.61
2022-09-20T13:42:20.559Z,59.63
2022-09-20T13:44:53.331Z,60.35
2022-09-20T13:47:30.679Z,61.03
2022-09-20T13:50:17.461Z,61.66
2022-09-20T13:52:51.664Z,61.94
2022-09-20T13:55:34.434Z,62.48
2022-09-20T13:58:08.657Z,62.88
2022-09-20T14:00:50.085Z,63.42
2022-09-20T14:03:23.626Z,63.70
2022-09-20T14:05:58.359Z,64.26
2022-09-20T14:08:54.744Z,64.49
2022-09-20T14:11:30.258Z,64.25
2022-09-20T14:14:04.390Z,65.21
2022-09-20T14:16:40.001Z,65.85
2022-09-20T14:19:16.806Z,66.10
2022-09-20T14:21:49.344Z,66.71
2022-09-20T14:24:33.137Z,67.10
2022-09-20T14:27:19.104Z,66.64
2022-09-20T14:29:52.897Z,66.27
2022-09-20T14:32:40.978Z,66.75
2022-09-20T14:35:19.774Z,66.95
2022-09-20T14:37:53.850Z,67.25
2022-09-20T14:40:28.722Z,67.60
2022-09-20T14:43:03.639Z,67.87
2022-09-20T14:45:38.970Z,68.17
2022-09-20T14:48:33.640Z,68.25
2022-09-20T14:51:26.837Z,68.54
2022-09-20T14:54:27.087Z,68.16
2022-09-20T14:57:00.666Z,68.22
2022-09-20T14:59:40.007Z,68.27
2022-09-20T15:02:16.791Z,68.81
2022-09-20T15:04:54.342Z,69.02
2022-09-20T15:07:26.731Z,69.42
2022-09-20T15:10:14.846Z,69.66
2022-09-20T15:12:47.575Z,69.31
2022-09-20T15:15:20.827Z,69.37
2022-09-20T15:17:53.114Z,69.65
2022-09-20T15:20:25.570Z,69.61
2022-09-20T15:22:58.079Z,69.25
2022-09-20T15:25:30.146Z,69.23
2022-09-20T15:28:03.226Z,69.58
2022-09-20T15:30:35.385Z,69.99
2022-09-20T15:33:07.512Z,70.25
2022-09-20T15:35:40.527Z,70.29
2022-09-20T15:38:14.074Z,70.25
2022-09-20T15:40:50.570Z,70.23
2022-09-20T15:43:27.223Z,70.07
2022-09-20T15:46:02.043Z,70.81
2022-09-20T15:48:34.237Z,71.50
2022-09-20T15:51:08.656Z,71.62
2022-09-20T15:53:45.176Z,71.07
2022-09-20T15:56:22.269Z,70.77
2022-09-20T15:58:59.173Z,70.62
2022-09-20T16:01:33.245Z,70.58
2022-09-20T16:04:10.440Z,70.52
2022-09-20T16:06:44.856Z,70.53
2022-09-20T16:09:21.882Z,70.90
2022-09-20T16:11:58.956Z,71.15
2022-09-20T16:14:31.152Z,71.57
2022-09-20T16:17:03.443Z,71.82
2022-09-20T16:19:35.640Z,72.11
2022-09-20T16:22:07.766Z,72.09
2022-09-20T16:24:39.890Z,72.01
2022-09-20T16:27:12.675Z,72.25
2022-09-20T16:29:45.355Z,72.55
2022-09-20T16:32:17.367Z,72.49
2022-09-20T16:34:49.973Z,72.11
2022-09-20T16:37:22.833Z,72.11
2022-09-20T16:39:54.994Z,72.07
2022-09-20T16:42:27.141Z,72.50
2022-09-20T16:44:59.721Z,72.38
2022-09-20T16:47:31.714Z,72.38
2022-09-20T16:50:03.969Z,72.11
2022-09-20T16:52:37.091Z,71.97
2022-09-20T16:55:13.162Z,72.48
2022-09-20T16:57:45.177Z,72.49
2022-09-20T17:00:20.971Z,72.40
2022-09-20T17:02:53.424Z,72.29
2022-09-20T17:05:25.609Z,72.28
2022-09-20T17:07:58.587Z,72.33
2022-09-20T17:10:31.203Z,72.43
2022-09-20T17:13:03.246Z,72.77
2022-09-20T17:15:37.785Z,72.90
2022-09-20T17:18:14.861Z,72.93
2022-09-20T17:20:49.166Z,72.97
2022-09-20T17:23:21.246Z,73.29
2022-09-20T17:26:06.359Z,73.42
2022-09-20T17:28:40.601Z,73.31
2022-09-20T17:31:14.574Z,73.45
2022-09-20T17:33:47.057Z,73.57
2022-09-20T17:36:21.527Z,73.63
2022-09-20T17:39:00.428Z,73.73
2022-09-20T17:41:37.436Z,73.89
2022-09-20T17:44:12.092Z,73.97
2022-09-20T17:46:45.839Z,73.97
2022-09-20T17:49:19.472Z,73.94
2022-09-20T17:51:53.568Z,74.03
2022-09-20T17:54:26.672Z,73.91
2022-09-20T17:56:58.704Z,73.89
2022-09-20T17:59:30.950Z,74.08
2022-09-20T18:02:03.058Z,74.26
2022-09-20T18:04:35.184Z,74.13
2022-09-20T18:07:07.411Z,74.08
2022-09-20T18:09:39.435Z,73.99
2022-09-20T18:12:16.640Z,74.04
2022-09-20T18:14:50.249Z,74.07
2022-09-20T18:17:22.350Z,74.00
2022-09-20T18:19:54.580Z,73.84
2022-09-20T18:22:26.680Z,74.14
2022-09-20T18:24:58.699Z,74.16
2022-09-20T18:27:34.112Z,74.19
2022-09-20T18:30:07.889Z,74.25
2022-09-20T18:32:40.052Z,74.37
2022-09-20T18:35:12.394Z,74.53
2022-09-20T18:37:44.528Z,74.77
2022-09-20T18:40:16.825Z,74.90
2022-09-20T18:42:55.267Z,75.09
2022-09-20T18:45:27.309Z,75.39
2022-09-20T18:47:59.807Z,75.67
2022-09-20T18:50:31.998Z,75.86
2022-09-20T18:53:04.338Z,75.92
2022-09-20T18:55:37.424Z,76.20
2022-09-20T18:58:11.126Z,76.29
2022-09-20T19:00:43.557Z,76.42
2022-09-20T19:03:25.570Z,76.50
2022-09-20T19:06:06.654Z,76.67
2022-09-20T19:08:45.505Z,76.77
2022-09-20T19:11:28.188Z,76.85
2022-09-20T19:14:07.977Z,76.93
2022-09-20T19:16:41.481Z,77.16
2022-09-20T19:19:27.384Z,77.22
2022-09-20T19:22:04.819Z,77.37
2022-09-20T19:25:01.439Z,77.42
2022-09-20T19:27:35.360Z,77.41
2022-09-20T19:30:13.611Z,77.29
2022-09-20T19:32:46.814Z,77.18
2022-09-20T19:35:23.574Z,77.07
2022-09-20T19:38:05.586Z,77.02
2022-09-20T19:40:48.755Z,77.03
2022-09-20T19:43:41.359Z,76.96
2022-09-20T19:46:27.082Z,77.08
2022-09-20T19:49:09.296Z,77.06
2022-09-20T19:51:44.165Z,77.12
2022-09-20T19:54:18.882Z,77.22
2022-09-20T19:56:56.159Z,77.20
2022-09-20T19:59:30.750Z,77.54
2022-09-20T20:02:04.407Z,77.41
2022-09-20T20:04:37.685Z,77.32
2022-09-20T20:07:16.794Z,77.26
2022-09-20T20:09:55.369Z,77.32
2022-09-20T20:12:36.860Z,77.43
2022-09-20T20:15:21.671Z,77.52
2022-09-20T20:18:03.087Z,77.33
2022-09-20T20:20:40.969Z,77.39
2022-09-20T20:23:41.792Z,77.46
2022-09-20T20:26:20.622Z,77.33
2022-09-20T20:28:53.560Z,77.45
2022-09-20T20:31:25.783Z,77.46
2022-09-20T20:33:57.893Z,77.29
2022-09-20T20:36:29.904Z,77.36
2022-09-20T20:39:02.862Z,77.43
2022-09-20T20:41:35.032Z,77.36
2022-09-20T20:44:07.958Z,77.56
2022-09-20T20:46:40.077Z,77.48
2022-09-20T20:49:12.180Z,77.67
2022-09-20T20:51:44.904Z,77.75
2022-09-20T20:54:17.094Z,77.83
2022-09-20T20:56:49.188Z,77.78
2022-09-20T20:59:21.272Z,77.92
2022-09-20T21:01:53.403Z,77.99
2022-09-20T21:04:27.586Z,77.96
2022-09-20T21:07:00.407Z,78.07
2022-09-20T21:09:32.595Z,78.04
2022-09-20T21:12:05.234Z,78.10
2022-09-20T21:14:38.295Z,78.20
2022-09-20T21:17:11.082Z,78.23
2022-09-20T21:19:43.084Z,78.27
2022-09-20T21:22:15.145Z,78.38
2022-09-20T21:24:47.154Z,78.45
2022-09-20T21:27:20.970Z,78.72
2022-09-20T21:29:53.012Z,78.73
2022-09-20T21:32:25.067Z,78.97
2022-09-20T21:34:57.243Z,78.98
2022-09-20T21:37:29.542Z,79.00
2022-09-20T21:40:02.327Z,79.05
2022-09-20T21:42:34.526Z,79.14
2022-09-20T21:45:11.137Z,79.24
2022-09-20T21:47:43.175Z,79.35
2022-09-20T21:50:15.655Z,79.31
2022-09-20T21:52:48.753Z,79.50
2022-09-20T21:55:20.761Z,79.55
2022-09-20T21:57:53.294Z,79.59
2022-09-20T22:00:27.357Z,79.67
2022-09-20T22:02:59.383Z,79.77
2022-09-20T22:05:31.374Z,79.90
2022-09-20T22:08:03.630Z,79.99
2022-09-20T22:10:36.340Z,80.21
2022-09-20T22:13:08.772Z,80.18
2022-09-20T22:15:40.961Z,80.24
2022-09-20T22:18:12.998Z,80.29
2022-09-20T22:20:45.682Z,80.37
2022-09-20T22:23:17.921Z,80.46
2022-09-20T22:25:59.575Z,80.66
2022-09-20T22:28:31.687Z,80.69
2022-09-20T22:31:09.275Z,80.75
2022-09-20T22:33:45.541Z,80.91
2022-09-20T22:36:19.977Z,81.11
2022-09-20T22:38:52.951Z,81.25
2022-09-20T22:41:25.557Z,81.43
2022-09-20T22:43:58.459Z,81.44
2022-09-20T22:46:31.692Z,81.37
2022-09-20T22:49:05.370Z,81.55
2022-09-20T22:51:38.458Z,81.61
2022-09-20T22:54:12.311Z,81.68
2022-09-20T22:56:44.450Z,81.59
2022-09-20T22:59:17.273Z,81.66
2022-09-20T23:01:51.134Z,81.60
2022-09-20T23:04:23.654Z,81.70
2022-09-20T23:06:56.430Z,81.70
2022-09-20T23:09:29.362Z,81.69
2022-09-20T23:12:01.433Z,81.68
2022-09-20T23:14:33.911Z,81.75
2022-09-20T23:17:06.053Z,81.77
2022-09-20T23:19:38.106Z,81.67
2022-09-20T23:22:10.273Z,81.91
2022-09-20T23:24:42.605Z,81.89
2022-09-20T23:27:15.908Z,82.03
2022-09-20T23:29:47.945Z,82.02
2022-09-20T23:32:19.995Z,81.96
2022-09-20T23:34:52.143Z,81.94
2022-09-20T23:37:24.494Z,82.04
2022-09-20T23:39:56.935Z,82.06
2022-09-20T23:42:29.151Z,82.12
2022-09-20T23:45:01.140Z,82.26
2022-09-20T23:47:33.275Z,82.36
2022-09-20T23:50:05.512Z,82.49
2022-09-20T23:52:37.630Z,82.55
2022-09-20T23:55:11.253Z,82.60
2022-09-20T23:57:44.554Z,82.70
